Time;durP1;ratioP1;P1;durP2;ratioP2;P2;SDS_P1;SDS_P2;PMS_P1;PMS_P2;Temp;Humidity;BMP_temperature;BMP_pressure;BME280_temperature;BME280_humidity;BME280_pressure;Samples;Min_cycle;Max_cycle;Signal;HPM_P1;HPM_P2
2022/10/29 00:01:54;;;;;;;23.30;10.77;;;;;;;13.83;77.54;101968.03;5093218;28;20100;-77
2022/10/29 00:04:20;;;;;;;126.90;17.83;;;;;;;13.83;77.78;101973.44;5091564;28;20424;-76
2022/10/29 00:06:47;;;;;;;135.68;16.60;;;;;;;13.78;77.63;101964.81;5091614;28;20035;-76
2022/10/29 00:09:13;;;;;;;89.80;14.55;;;;;;;13.72;77.66;101965.25;5091798;28;20027;-76
2022/10/29 00:11:38;;;;;;;68.97;13.60;;;;;;;13.71;77.93;101966.22;5091686;28;20486;-76
2022/10/29 00:14:04;;;;;;;54.83;11.98;;;;;;;13.70;77.88;101972.59;5091890;28;20024;-76
2022/10/29 00:16:36;;;;;;;31.85;12.75;;;;;;;13.71;78.10;101968.94;5091356;28;20043;-77
2022/10/29 00:19:03;;;;;;;32.55;12.10;;;;;;;13.71;77.51;101962.66;5091171;28;20686;-76
2022/10/29 00:21:29;;;;;;;42.67;11.40;;;;;;;13.73;77.54;101963.44;5091094;28;20491;-76
2022/10/29 00:23:56;;;;;;;484.67;40.67;;;;;;;13.49;77.59;101931.78;5091576;28;20024;-75
2022/10/29 00:26:22;;;;;;;113.20;16.00;;;;;;;13.67;77.57;101967.41;5091239;28;20031;-77
2022/10/29 00:28:52;;;;;;;78.55;15.00;;;;;;;13.65;77.50;101958.56;5091733;28;20081;-76
2022/10/29 00:31:18;;;;;;;50.40;12.85;;;;;;;13.64;77.61;101948.72;5089637;28;20052;-76
2022/10/29 00:33:44;;;;;;;30.80;12.85;;;;;;;13.64;77.72;101954.13;5090897;28;20043;-76
2022/10/29 00:36:15;;;;;;;21.73;12.75;;;;;;;13.63;77.73;101944.31;5091422;28;20128;-78
2022/10/29 00:38:41;;;;;;;23.70;12.00;;;;;;;13.63;77.67;101953.28;5091243;28;20028;-80
2022/10/29 00:41:09;;;;;;;33.15;13.18;;;;;;;13.67;77.97;101951.19;5091006;28;20111;-77
2022/10/29 00:43:36;;;;;;;17.75;11.70;;;;;;;13.62;78.05;101953.38;5091160;28;20028;-76
2022/10/29 00:46:03;;;;;;;42.03;13.40;;;;;;;13.66;78.45;101944.09;5091368;28;20035;-78
2022/10/29 00:48:32;;;;;;;21.70;12.70;;;;;;;13.68;78.40;101942.13;5090177;28;20039;-77
2022/10/29 00:51:01;;;;;;;15.68;11.13;;;;;;;13.66;78.44;101941.38;5071706;28;20059;-76
2022/10/29 00:53:29;;;;;;;24.00;14.02;;;;;;;13.62;78.57;101947.97;5091112;28;20059;-79
2022/10/29 00:55:56;;;;;;;23.80;14.00;;;;;;;13.67;79.13;101940.38;5054998;28;20032;-76
2022/10/29 00:58:21;;;;;;;21.77;11.88;;;;;;;13.68;79.02;101938.53;5111938;28;20083;-76
2022/10/29 01:00:47;;;;;;;21.30;14.10;;;;;;;13.55;79.00;101942.16;5112928;28;20033;-76
2022/10/29 01:03:12;;;;;;;20.90;13.45;;;;;;;13.55;79.15;101930.47;5107404;28;20024;-76
2022/10/29 01:05:39;;;;;;;20.17;13.35;;;;;;;13.57;79.61;101931.25;5090520;28;20038;-78
2022/10/29 01:08:05;;;;;;;93.97;13.40;;;;;;;13.59;79.58;101930.16;5090485;28;20400;-76
2022/10/29 01:10:42;;;;;;;88.90;14.60;;;;;;;13.61;79.65;101935.44;5090476;28;20024;-76
2022/10/29 01:13:23;;;;;;;62.00;15.73;;;;;;;13.66;79.49;101932.41;5089999;28;20587;-77
2022/10/29 01:16:17;;;;;;;43.78;12.27;;;;;;;13.61;79.18;101930.00;5090543;28;20023;-77
2022/10/29 01:18:54;;;;;;;86.78;16.95;;;;;;;13.57;78.89;101923.13;5090047;28;20616;-76
2022/10/29 01:21:41;;;;;;;39.30;12.35;;;;;;;13.42;78.69;101881.00;5090028;28;20555;-76
2022/10/29 01:24:25;;;;;;;27.63;13.52;;;;;;;13.54;78.53;101924.22;5089614;28;20139;-76
2022/10/29 01:27:09;;;;;;;38.50;11.85;;;;;;;13.41;78.65;101896.34;5089992;28;20081;-76
2022/10/29 01:30:03;;;;;;;41.22;13.10;;;;;;;13.55;78.39;101914.25;5090173;28;20038;-76
2022/10/29 01:32:56;;;;;;;27.75;12.65;;;;;;;13.51;78.01;101912.78;5089711;28;20345;-77
2022/10/29 01:35:45;;;;;;;20.02;11.38;;;;;;;13.44;78.17;101906.06;5090048;28;20115;-76
2022/10/29 01:38:17;;;;;;;29.60;11.73;;;;;;;13.47;77.97;101911.25;5089916;28;20052;-78
2022/10/29 01:40:51;;;;;;;27.48;10.68;;;;;;;13.33;78.04;101882.50;5090046;28;20024;-78
2022/10/29 01:43:27;;;;;;;23.60;11.32;;;;;;;13.41;78.30;101895.47;5090177;28;20463;-78
2022/10/29 01:46:03;;;;;;;71.28;14.20;;;;;;;13.43;78.04;101909.75;5089753;28;20028;-79
2022/10/29 01:48:33;;;;;;;24.30;12.05;;;;;;;13.41;78.26;101899.06;5089716;28;20028;-77
2022/10/29 01:51:04;;;;;;;24.20;13.80;;;;;;;13.38;79.13;101893.88;5088190;28;20119;-77
2022/10/29 01:53:34;;;;;;;22.23;14.37;;;;;;;13.41;79.55;101892.78;5088625;28;20056;-77
2022/10/29 01:56:00;;;;;;;32.83;14.27;;;;;;;13.36;80.21;101892.28;5089674;28;20492;-78
2022/10/29 01:58:25;;;;;;;78.25;17.10;;;;;;;13.41;80.16;101890.06;5089830;28;20028;-77
2022/10/29 02:01:22;;;;;;;32.28;16.73;;;;;;;13.47;80.41;101884.22;5089738;28;20028;-77
2022/10/29 02:04:00;;;;;;;34.70;19.52;;;;;;;13.45;80.99;101880.78;5089883;28;20034;-76
2022/10/29 02:06:34;;;;;;;28.42;16.95;;;;;;;13.48;80.96;101885.97;5084823;28;20143;-77
2022/10/29 02:09:02;;;;;;;32.65;18.25;;;;;;;13.50;81.19;101889.41;5097615;28;20027;-78
2022/10/29 02:11:36;;;;;;;400.35;43.60;;;;;;;13.50;81.36;101894.81;5112500;28;20040;-77
2022/10/29 02:14:04;;;;;;;170.40;27.05;;;;;;;13.46;81.25;101875.25;5113853;28;20028;-77
2022/10/29 02:16:31;;;;;;;124.75;22.65;;;;;;;13.55;80.97;101887.22;5095430;28;20032;-79
2022/10/29 02:18:58;;;;;;;52.53;18.33;;;;;;;13.56;80.80;101878.13;5090218;28;20029;-80
2022/10/29 02:21:23;;;;;;;49.20;15.70;;;;;;;13.41;80.58;101853.13;5089591;28;20027;-78
2022/10/29 02:23:49;;;;;;;46.88;15.90;;;;;;;13.56;79.88;101883.53;5088285;28;20504;-78
2022/10/29 02:26:15;;;;;;;27.23;14.48;;;;;;;13.54;79.57;101880.97;5069350;28;20047;-78
2022/10/29 02:28:41;;;;;;;30.75;14.30;;;;;;;13.49;79.33;101866.91;5089086;28;20028;-78
2022/10/29 02:31:07;;;;;;;39.30;12.38;;;;;;;13.50;78.70;101884.88;5088341;28;20036;-79
2022/10/29 02:33:33;;;;;;;25.15;11.60;;;;;;;13.46;78.59;101882.50;5088944;28;20050;-80
2022/10/29 02:35:58;;;;;;;50.45;13.68;;;;;;;13.46;78.18;101877.09;5088854;28;20114;-78
2022/10/29 02:38:24;;;;;;;178.52;19.70;;;;;;;13.41;78.09;101874.72;5088928;28;20111;-78
2022/10/29 02:40:49;;;;;;;124.28;18.50;;;;;;;13.38;78.14;101874.09;5088615;28;20471;-79
2022/10/29 02:43:15;;;;;;;42.45;13.73;;;;;;;13.41;77.62;101873.88;5089262;28;20020;-78
2022/10/29 02:45:40;;;;;;;64.55;14.27;;;;;;;13.35;77.59;101860.81;5089025;28;20101;-77
2022/10/29 02:48:05;;;;;;;51.17;12.10;;;;;;;13.30;77.75;101854.88;5089577;28;20024;-78
2022/10/29 02:50:31;;;;;;;23.02;11.10;;;;;;;13.34;77.56;101868.03;5087712;28;20024;-77
2022/10/29 02:52:56;;;;;;;26.05;10.75;;;;;;;13.13;77.64;101830.91;5089313;28;20039;-78
2022/10/29 02:55:22;;;;;;;23.17;10.82;;;;;;;13.19;77.43;101847.53;5088792;28;20028;-77
2022/10/29 02:57:47;;;;;;;244.80;23.48;;;;;;;13.19;77.30;101839.44;5088614;28;20028;-79
2022/10/29 03:00:13;;;;;;;112.80;17.55;;;;;;;13.32;77.10;101861.03;5088605;28;20024;-76
2022/10/29 03:02:39;;;;;;;70.05;13.52;;;;;;;13.29;77.36;101869.34;5088596;28;20074;-76
2022/10/29 03:05:06;;;;;;;34.78;12.88;;;;;;;13.22;77.57;101862.66;5089994;28;20035;-77
2022/10/29 03:07:36;;;;;;;34.17;13.57;;;;;;;13.15;77.95;101867.66;5092159;28;20028;-78
2022/10/29 03:10:06;;;;;;;38.15;13.57;;;;;;;13.16;77.71;101857.72;5089984;28;20028;-79
2022/10/29 03:12:31;;;;;;;61.20;16.23;;;;;;;13.19;77.56;101863.75;5090154;28;20047;-77
2022/10/29 03:14:57;;;;;;;44.08;13.38;;;;;;;13.06;77.70;101834.03;5092557;28;20067;-77
2022/10/29 03:17:23;;;;;;;29.20;14.93;;;;;;;13.16;77.77;101860.41;5092968;28;20463;-78
2022/10/29 03:19:48;;;;;;;26.67;14.40;;;;;;;13.17;77.80;101859.44;5091687;28;20028;-78
2022/10/29 03:22:13;;;;;;;73.47;17.20;;;;;;;13.17;77.81;101854.91;5111097;28;20027;-77
2022/10/29 03:24:39;;;;;;;21.50;13.52;;;;;;;13.01;77.47;101832.66;5112049;28;20049;-79
2022/10/29 03:27:04;;;;;;;24.90;15.18;;;;;;;12.97;78.31;101848.19;5104363;28;20089;-79
2022/10/29 03:29:30;;;;;;;25.42;14.48;;;;;;;13.08;78.38;101844.78;5092601;28;20395;-78
2022/10/29 03:31:55;;;;;;;71.22;18.38;;;;;;;12.87;78.42;101814.72;5090579;28;20507;-78
2022/10/29 03:34:21;;;;;;;64.65;16.27;;;;;;;13.00;78.11;101845.28;5091890;28;20115;-78
2022/10/29 03:36:46;;;;;;;38.83;13.82;;;;;;;12.99;78.23;101851.69;5091936;28;20028;-78
2022/10/29 03:39:11;;;;;;;30.45;13.73;;;;;;;13.01;78.15;101843.44;5091589;28;20039;-76
2022/10/29 03:41:37;;;;;;;44.88;15.68;;;;;;;12.90;78.54;101825.31;5091328;28;20108;-78
2022/10/29 03:44:02;;;;;;;62.45;15.55;;;;;;;13.00;78.64;101845.28;5092066;28;20050;-76
2022/10/29 03:46:28;;;;;;;52.40;14.98;;;;;;;12.88;78.79;101821.00;5091592;28;20024;-77
2022/10/29 03:48:53;;;;;;;32.22;12.30;;;;;;;13.04;78.57;101841.41;5091743;28;20077;-78
2022/10/29 03:51:18;;;;;;;133.88;17.83;;;;;;;13.05;78.53;101837.72;5091616;28;20135;-79
2022/10/29 03:53:44;;;;;;;74.05;14.32;;;;;;;13.09;78.58;101841.94;5091112;28;20034;-78
2022/10/29 03:56:10;;;;;;;33.22;13.05;;;;;;;13.01;78.69;101833.50;5091695;28;20028;-77
2022/10/29 03:58:35;;;;;;;61.78;14.82;;;;;;;12.87;78.51;101814.72;5091246;28;20024;-77
2022/10/29 04:01:03;;;;;;;47.08;12.88;;;;;;;12.86;78.22;101822.94;5091779;28;20024;-78
2022/10/29 04:03:30;;;;;;;29.55;12.85;;;;;;;12.97;78.09;101836.53;5090530;28;20024;-77
2022/10/29 04:05:57;;;;;;;108.10;14.60;;;;;;;12.96;78.26;101835.69;5090470;28;20016;-74
2022/10/29 04:08:22;;;;;;;31.27;11.88;;;;;;;13.01;78.46;101838.91;5071068;28;20109;-76
2022/10/29 04:10:49;;;;;;;22.60;12.90;;;;;;;13.00;78.60;101839.00;5090362;28;20032;-74
2022/10/29 04:13:15;;;;;;;23.10;13.52;;;;;;;12.95;78.37;101836.66;5090241;28;20065;-75
2022/10/29 04:15:41;;;;;;;28.73;15.30;;;;;;;12.70;78.35;101835.81;5090374;28;20157;-77
2022/10/29 04:18:07;;;;;;;30.10;15.82;;;;;;;12.78;78.30;101846.94;5090599;28;20103;-77
2022/10/29 04:20:34;;;;;;;103.35;19.23;;;;;;;12.78;78.09;101830.75;5090716;28;20027;-78
2022/10/29 04:22:59;;;;;;;32.60;15.73;;;;;;;12.80;78.06;101843.16;5090031;28;20038;-79
2022/10/29 04:25:25;;;;;;;63.38;18.10;;;;;;;12.81;77.97;101850.25;5092815;28;20040;-78
2022/10/29 04:27:53;;;;;;;75.53;17.65;;;;;;;12.59;77.84;101820.41;5093134;28;20069;-79
2022/10/29 04:30:19;;;;;;;40.50;15.95;;;;;;;12.79;77.44;101844.13;5096051;28;20020;-82
2022/10/29 04:32:44;;;;;;;1295.97;128.50;;;;;;;12.79;77.54;101844.13;5109564;28;20095;-80
2022/10/29 04:35:09;;;;;;;46.42;21.80;;;;;;;12.70;77.20;101827.72;5115476;28;20052;-79
2022/10/29 04:37:35;;;;;;;50.90;21.98;;;;;;;12.71;77.19;101846.50;5114645;28;20600;-78
2022/10/29 04:40:00;;;;;;;34.70;20.13;;;;;;;12.68;76.99;101852.13;5094452;28;20447;-78
2022/10/29 04:42:26;;;;;;;41.45;23.15;;;;;;;12.69;76.69;101853.00;5091365;28;20024;-78
2022/10/29 04:44:51;;;;;;;39.03;22.58;;;;;;;12.63;76.34;101865.06;5092377;28;20035;-83
2022/10/29 04:47:16;;;;;;;65.03;24.23;;;;;;;12.50;75.93;101848.91;5091843;28;20346;-80
2022/10/29 04:49:42;;;;;;;45.22;23.60;;;;;;;12.60;76.07;101859.88;5091050;28;20095;-85
2022/10/29 04:52:07;;;;;;;135.85;30.02;;;;;;;12.54;76.06;101855.78;5090935;28;20177;-76
2022/10/29 04:54:33;;;;;;;47.13;24.38;;;;;;;12.53;76.43;101858.59;5090327;28;20028;-79
2022/10/29 04:56:58;;;;;;;39.88;25.67;;;;;;;12.52;75.93;101859.56;5091026;28;20407;-76
2022/10/29 04:59:24;;;;;;;55.45;27.42;;;;;;;12.34;75.97;101837.44;5090801;28;20471;-76
2022/10/29 05:01:49;;;;;;;185.02;32.28;;;;;;;12.51;75.82;101853.31;5090788;28;20028;-77
2022/10/29 05:04:14;;;;;;;224.55;33.42;;;;;;;12.35;75.88;101846.41;5089925;28;20085;-76
2022/10/29 05:06:40;;;;;;;67.00;27.92;;;;;;;12.43;75.85;101869.19;5089134;28;20068;-78
2022/10/29 05:09:05;;;;;;;112.70;32.30;;;;;;;12.28;75.93;101837.00;5089797;28;20402;-77
2022/10/29 05:11:31;;;;;;;67.03;31.20;;;;;;;12.44;75.65;101867.34;5088036;28;20124;-76
2022/10/29 05:13:56;;;;;;;50.80;28.70;;;;;;;12.26;75.69;101855.13;5088832;28;20029;-76
2022/10/29 05:16:22;;;;;;;43.33;29.50;;;;;;;12.34;75.75;101871.66;5088932;28;20166;-77
2022/10/29 05:18:47;;;;;;;37.03;28.27;;;;;;;12.35;75.48;101878.78;5088910;28;20031;-78
2022/10/29 05:21:13;;;;;;;40.70;27.65;;;;;;;12.22;75.69;101877.88;5089341;28;20024;-75
2022/10/29 05:23:38;;;;;;;38.03;24.77;;;;;;;12.29;75.95;101881.91;5089463;28;20032;-76
2022/10/29 05:26:03;;;;;;;70.93;25.48;;;;;;;12.31;75.94;101879.94;5090140;28;20081;-80
2022/10/29 05:28:29;;;;;;;38.00;24.63;;;;;;;12.20;76.63;101880.66;5089367;28;20047;-78
2022/10/29 05:30:54;;;;;;;46.47;25.75;;;;;;;12.19;76.77;101881.66;5089365;28;20104;-77
2022/10/29 05:33:23;;;;;;;58.92;27.50;;;;;;;12.17;77.31;101886.28;5090103;28;20079;-77
2022/10/29 05:35:50;;;;;;;35.88;23.85;;;;;;;12.11;77.08;101883.16;5088924;28;20487;-78
2022/10/29 05:38:16;;;;;;;43.22;24.42;;;;;;;12.09;77.81;101874.28;5088877;28;20757;-78
2022/10/29 05:40:43;;;;;;;42.83;23.13;;;;;;;12.15;78.23;101895.44;5090693;28;20028;-77
2022/10/29 05:43:13;;;;;;;40.03;23.75;;;;;;;12.09;77.88;101890.47;5097861;28;20032;-78
2022/10/29 05:45:39;;;;;;;68.38;24.98;;;;;;;12.12;78.56;101891.13;5105824;28;20077;-77
2022/10/29 05:48:04;;;;;;;88.45;27.23;;;;;;;12.23;78.92;101893.94;5107143;28;20032;-78
2022/10/29 05:50:31;;;;;;;66.75;24.67;;;;;;;12.42;78.73;101898.94;5092451;28;20024;-77
2022/10/29 05:53:01;;;;;;;28.73;21.67;;;;;;;12.44;78.87;101902.44;5069571;28;20040;-76
2022/10/29 05:55:28;;;;;;;43.10;22.73;;;;;;;12.45;78.57;101909.53;5088754;28;20042;-77
2022/10/29 05:58:03;;;;;;;38.92;22.60;;;;;;;12.59;78.67;101912.16;5088524;28;20765;-76
2022/10/29 06:00:30;;;;;;;56.45;24.73;;;;;;;12.64;78.15;101907.28;5088743;28;20032;-77
2022/10/29 06:02:56;;;;;;;36.95;23.98;;;;;;;12.78;77.77;101907.19;5088025;28;20046;-76
2022/10/29 06:05:22;;;;;;;41.78;25.10;;;;;;;12.80;77.47;101910.66;5088179;28;20032;-81
2022/10/29 06:07:55;;;;;;;41.85;25.23;;;;;;;12.85;77.61;101913.88;5089373;28;20494;-78
2022/10/29 06:10:21;;;;;;;91.97;25.63;;;;;;;12.94;77.73;101910.53;5086981;28;20081;-75
2022/10/29 06:12:47;;;;;;;41.05;23.25;;;;;;;13.00;77.11;101915.50;5088292;28;20402;-80
2022/10/29 06:15:12;;;;;;;40.15;25.38;;;;;;;12.99;77.57;101907.53;5088089;28;20036;-77
2022/10/29 06:17:42;;;;;;;40.72;23.38;;;;;;;13.17;77.44;101914.34;5088400;28;20076;-78
2022/10/29 06:20:08;;;;;;;60.08;24.27;;;;;;;13.22;77.27;101917.56;5087103;28;20421;-77
2022/10/29 06:22:34;;;;;;;38.03;24.05;;;;;;;13.16;77.22;101884.72;5088640;28;20404;-77
2022/10/29 06:24:59;;;;;;;37.78;26.63;;;;;;;13.24;77.51;101912.06;5088649;28;20036;-78
2022/10/29 06:27:25;;;;;;;34.33;25.50;;;;;;;13.41;77.41;101914.41;5088820;28;20030;-80
2022/10/29 06:29:50;;;;;;;44.33;27.33;;;;;;;13.48;77.04;101907.59;5088475;28;20034;-79
2022/10/29 06:32:16;;;;;;;41.90;25.95;;;;;;;13.40;76.54;101888.34;5088932;28;20063;-77
2022/10/29 06:34:41;;;;;;;41.92;25.75;;;;;;;13.66;76.52;101922.44;5088175;28;20027;-77
2022/10/29 06:37:07;;;;;;;42.92;27.42;;;;;;;13.71;76.43;101914.84;5089754;28;20079;-77
2022/10/29 06:39:32;;;;;;;109.20;72.03;;;;;;;13.78;76.34;101910.72;5091660;28;20023;-79
2022/10/29 06:41:58;;;;;;;60.45;33.97;;;;;;;13.87;75.96;101920.84;5089276;28;20060;-78
2022/10/29 06:44:23;;;;;;;52.92;31.40;;;;;;;13.91;76.06;101922.34;5088798;28;20089;-76
2022/10/29 06:46:48;;;;;;;102.35;34.65;;;;;;;13.96;75.92;101924.72;5088674;28;20036;-77
2022/10/29 06:49:14;;;;;;;78.55;36.33;;;;;;;13.94;75.55;101911.28;5093515;28;20021;-78
2022/10/29 06:51:39;;;;;;;82.53;39.20;;;;;;;13.94;75.59;101905.88;5094027;28;20023;-79
2022/10/29 06:54:05;;;;;;;77.82;41.75;;;;;;;14.01;75.34;101927.91;5104226;28;20037;-78
2022/10/29 06:56:30;;;;;;;88.05;42.17;;;;;;;13.99;75.52;101930.75;5112065;28;20074;-79
2022/10/29 06:58:56;;;;;;;77.75;42.72;;;;;;;13.99;75.46;101930.75;5108602;28;20166;-78
2022/10/29 07:01:22;;;;;;;92.00;45.83;;;;;;;13.99;75.61;101924.47;5095153;28;20436;-77
2022/10/29 07:03:47;;;;;;;80.18;46.63;;;;;;;13.97;75.87;101932.72;5091906;28;20024;-77
2022/10/29 07:06:13;;;;;;;87.40;48.55;;;;;;;13.97;75.91;101921.91;5091509;28;20022;-76
2022/10/29 07:08:38;;;;;;;93.43;48.78;;;;;;;13.95;75.75;101910.31;5091238;28;20024;-75
2022/10/29 07:11:04;;;;;;;102.15;51.45;;;;;;;14.10;76.08;101930.81;5091167;28;20107;-76
2022/10/29 07:13:29;;;;;;;95.63;52.53;;;;;;;14.22;76.38;101930.88;5090858;28;20055;-75
2022/10/29 07:15:55;;;;;;;104.20;51.30;;;;;;;14.27;76.08;101934.09;5090948;28;20032;-77
2022/10/29 07:18:20;;;;;;;132.07;54.45;;;;;;;14.28;76.24;101928.53;5091656;28;20023;-81
2022/10/29 07:20:45;;;;;;;114.18;51.85;;;;;;;14.42;76.32;101928.41;5091669;28;20110;-78
2022/10/29 07:23:12;;;;;;;108.60;54.65;;;;;;;14.43;76.19;101924.69;5091107;28;20436;-76
2022/10/29 07:25:39;;;;;;;113.97;54.88;;;;;;;14.45;76.08;101911.91;5091074;28;20668;-76
2022/10/29 07:28:13;;;;;;;115.10;53.60;;;;;;;14.60;75.95;101926.09;5091660;28;20115;-78
2022/10/29 07:30:39;;;;;;;108.43;55.22;;;;;;;14.72;75.76;101933.28;5091056;28;20675;-76
2022/10/29 07:33:04;;;;;;;102.57;53.47;;;;;;;14.80;75.92;101933.53;5090705;28;20044;-77
2022/10/29 07:35:31;;;;;;;112.97;50.95;;;;;;;14.85;75.54;101925.94;5090834;28;20174;-77
2022/10/29 07:38:02;;;;;;;146.70;55.17;;;;;;;14.97;75.61;101924.94;5091401;28;20031;-77
2022/10/29 07:40:27;;;;;;;119.45;54.20;;;;;;;15.06;75.24;101924.22;5090881;28;20028;-76
2022/10/29 07:42:53;;;;;;;94.00;52.70;;;;;;;15.09;74.62;101912.28;5091014;28;20184;-78
2022/10/29 07:45:19;;;;;;;101.70;52.88;;;;;;;15.22;74.31;101929.28;5091126;28;20039;-77
2022/10/29 07:47:44;;;;;;;93.53;53.33;;;;;;;15.39;74.30;101919.78;5089896;28;20123;-77
2022/10/29 07:50:11;;;;;;;104.95;53.70;;;;;;;15.48;73.67;101919.06;5090882;28;20028;-76
2022/10/29 07:52:37;;;;;;;151.32;56.10;;;;;;;15.53;73.28;101912.31;5090235;28;20088;-77
2022/10/29 07:55:03;;;;;;;125.43;56.92;;;;;;;15.63;72.96;101909.66;5090921;28;20035;-77
2022/10/29 07:57:28;;;;;;;109.43;56.10;;;;;;;15.69;72.78;101917.31;5091151;28;20032;-78
2022/10/29 07:59:54;;;;;;;123.50;57.17;;;;;;;15.80;72.60;101911.88;5092450;28;20031;-80
2022/10/29 08:02:19;;;;;;;127.28;55.70;;;;;;;15.89;72.54;101908.41;5091873;28;20384;-77
2022/10/29 08:04:45;;;;;;;116.00;59.72;;;;;;;16.02;72.30;101909.09;5092853;28;20023;-78
2022/10/29 08:07:10;;;;;;;141.90;59.80;;;;;;;16.15;71.85;101912.47;5113125;28;20032;-77
2022/10/29 08:09:35;;;;;;;106.75;52.60;;;;;;;16.22;71.50;101901.97;5109357;28;20035;-78
2022/10/29 08:12:03;;;;;;;98.00;52.13;;;;;;;16.38;70.90;101909.69;5099982;28;20124;-77
2022/10/29 08:14:29;;;;;;;102.38;50.15;;;;;;;16.54;70.53;101912.81;5091838;28;20499;-78
2022/10/29 08:16:54;;;;;;;119.65;50.05;;;;;;;16.66;70.21;101915.38;5090053;28;20067;-80
2022/10/29 08:19:20;;;;;;;106.10;47.65;;;;;;;16.79;69.64;101913.28;5090506;28;20028;-79
2022/10/29 08:21:46;;;;;;;138.25;45.20;;;;;;;16.94;69.22;101902.91;5090097;28;20063;-76
2022/10/29 08:24:11;;;;;;;82.47;45.45;;;;;;;17.04;69.03;101913.84;5088898;28;20026;-76
2022/10/29 08:26:37;;;;;;;72.13;39.33;;;;;;;17.17;68.27;101901.78;5090167;28;20062;-76
2022/10/29 08:29:03;;;;;;;124.15;44.10;;;;;;;17.31;68.04;101905.97;5089758;28;20054;-76
2022/10/29 08:31:28;;;;;;;76.68;34.60;;;;;;;17.32;67.68;101884.09;5089616;28;20056;-77
2022/10/29 08:33:53;;;;;;;97.30;51.08;;;;;;;17.30;67.83;101844.44;5089837;28;20031;-77
2022/10/29 08:36:19;;;;;;;62.53;33.75;;;;;;;17.71;67.39;101887.78;5089915;28;20025;-78
2022/10/29 08:38:46;;;;;;;184.27;38.83;;;;;;;17.79;67.14;101878.94;5090078;28;20063;-77
2022/10/29 08:41:49;;;;;;;44.75;25.63;;;;;;;17.98;66.77;101884.38;5089537;28;20043;-77
2022/10/29 08:44:32;;;;;;;164.43;34.45;;;;;;;18.19;66.42;101890.59;5090156;28;20453;-77
2022/10/29 08:47:07;;;;;;;76.22;37.83;;;;;;;18.36;65.65;101889.00;5089645;28;20515;-77
2022/10/29 08:49:40;;;;;;;72.82;36.50;;;;;;;18.46;64.84;101889.84;5089725;28;20031;-79
2022/10/29 08:52:39;;;;;;;120.88;37.15;;;;;;;18.63;64.25;101889.13;5089599;28;20043;-78
2022/10/29 08:55:24;;;;;;;144.98;40.40;;;;;;;18.76;64.02;101888.81;5026359;28;20029;-76
2022/10/29 08:57:51;;;;;;;121.13;32.65;;;;;;;18.85;63.74;101890.66;5026779;28;20047;-81
2022/10/29 09:00:22;;;;;;;56.05;22.17;;;;;;;18.93;63.70;101872.53;5026734;28;20098;-78
2022/10/29 09:02:56;;;;;;;39.78;20.63;;;;;;;18.88;63.27;101847.59;5027646;28;20041;-79
2022/10/29 09:05:29;;;;;;;50.03;24.42;;;;;;;19.15;62.78;101881.38;5026424;28;20055;-76
2022/10/29 09:08:25;;;;;;;44.95;20.42;;;;;;;19.30;62.87;101869.81;5026499;28;20101;-77
2022/10/29 09:10:54;;;;;;;102.30;25.05;;;;;;;19.34;62.51;101868.50;5026891;28;20436;-78
2022/10/29 09:13:45;;;;;;;27.05;14.55;;;;;;;19.45;62.33;101862.88;5027515;28;20030;-78
2022/10/29 09:16:22;;;;;;;17.35;9.73;;;;;;;19.53;62.45;101864.84;5032626;28;20041;-78
2022/10/29 09:18:59;;;;;;;88.88;14.02;;;;;;;19.63;61.85;101851.97;5041357;28;20465;-77
2022/10/29 09:21:54;;;;;;;105.10;22.35;;;;;;;19.38;62.62;101828.16;5048403;28;20576;-78
2022/10/29 09:24:22;;;;;;;112.30;23.13;;;;;;;19.27;62.96;101861.06;5026274;28;20045;-77
2022/10/29 09:27:02;;;;;;;78.57;20.05;;;;;;;19.24;63.16;101859.50;5026321;28;20072;-79
2022/10/29 09:29:33;;;;;;;129.85;24.65;;;;;;;19.48;62.49;101846.19;5026329;28;20171;-77
2022/10/29 09:32:02;;;;;;;93.97;20.20;;;;;;;19.40;62.13;101832.47;5071246;28;20117;-77
2022/10/29 09:34:43;;;;;;;37.20;17.50;;;;;;;19.37;62.71;101843.66;5089135;28;20105;-76
2022/10/29 09:37:20;;;;;;;50.77;18.00;;;;;;;19.26;62.52;101838.41;5089203;28;20067;-78
2022/10/29 09:39:48;;;;;;;63.70;17.55;;;;;;;19.44;61.79;101828.44;5088998;28;20027;-77
2022/10/29 09:42:20;;;;;;;180.82;23.48;;;;;;;19.50;61.96;101833.28;5088814;28;20059;-78
2022/10/29 09:44:54;;;;;;;143.77;19.02;;;;;;;19.36;62.12;101824.69;5088896;28;20400;-77
2022/10/29 09:47:47;;;;;;;298.05;31.73;;;;;;;19.52;61.89;101833.09;5088549;28;20055;-76
2022/10/29 09:50:32;;;;;;;28.95;13.90;;;;;;;19.43;62.10;101834.88;5089137;28;20042;-77
2022/10/29 09:52:58;;;;;;;446.15;37.33;;;;;;;19.42;62.73;101830.44;5088575;28;20471;-76
2022/10/29 09:55:27;;;;;;;68.60;16.17;;;;;;;19.59;61.89;101825.16;5088270;28;20260;-78
2022/10/29 09:57:55;;;;;;;116.43;16.80;;;;;;;19.35;61.69;101834.78;5088423;28;20028;-77
2022/10/29 10:00:26;;;;;;;66.32;14.57;;;;;;;19.39;61.40;101830.75;5087987;28;20403;-77
2022/10/29 10:03:03;;;;;;;63.25;11.55;;;;;;;19.50;61.45;101830.53;5088500;28;20016;-77
2022/10/29 10:05:31;;;;;;;104.57;14.93;;;;;;;19.60;61.06;101815.97;5088745;28;20443;-77
2022/10/29 10:08:10;;;;;;;38.92;12.45;;;;;;;19.42;61.02;101814.06;5088307;28;20035;-78
2022/10/29 10:10:58;;;;;;;898.10;102.60;;;;;;;19.17;61.83;101801.13;5088624;28;20491;-78
2022/10/29 10:13:26;;;;;;;54.28;14.38;;;;;;;18.96;63.00;101805.94;5088552;28;20126;-77
2022/10/29 10:15:55;;;;;;;57.55;14.10;;;;;;;19.10;62.58;101805.47;5088325;28;20038;-76
2022/10/29 10:18:22;;;;;;;25.88;8.90;;;;;;;18.88;62.58;101803.97;5088912;28;20503;-77
2022/10/29 10:21:12;;;;;;;77.40;12.63;;;;;;;18.83;63.18;101797.28;5088394;28;20044;-79
2022/10/29 10:23:44;;;;;;;48.60;10.68;;;;;;;18.96;62.67;101786.84;5025838;28;20030;-76
2022/10/29 10:26:31;;;;;;;140.63;15.98;;;;;;;19.17;62.60;101790.22;5029849;28;20052;-82
2022/10/29 10:29:13;;;;;;;55.25;12.75;;;;;;;19.09;62.75;101790.09;5052167;28;20037;-81
2022/10/29 10:31:40;;;;;;;119.50;15.47;;;;;;;18.81;64.15;101785.63;5035577;28;20057;-80
2022/10/29 10:34:14;;;;;;;70.43;12.65;;;;;;;18.80;64.63;101773.03;5031644;28;20056;-76
2022/10/29 10:36:42;;;;;;;106.20;15.20;;;;;;;18.96;64.77;101775.94;5025459;28;20583;-78
2022/10/29 10:39:29;;;;;;;21.13;10.98;;;;;;;19.09;64.46;101768.28;5024918;28;20033;-76
2022/10/29 10:41:59;;;;;;;174.18;21.30;;;;;;;19.22;64.16;101757.88;5028001;28;20042;-76
2022/10/29 10:44:26;;;;;;;32.85;12.48;;;;;;;19.11;64.42;101771.72;5026135;28;20033;-77
2022/10/29 10:46:55;;;;;;;62.78;14.88;;;;;;;18.90;66.19;101765.66;5027058;28;20129;-77
2022/10/29 10:49:26;;;;;;;48.60;13.00;;;;;;;18.99;65.23;101751.09;5027692;28;20445;-76
2022/10/29 10:51:54;;;;;;;34.35;12.35;;;;;;;18.96;65.46;101756.88;5027203;28;20056;-76
2022/10/29 10:54:52;;;;;;;55.45;15.15;;;;;;;18.97;65.17;101753.13;5025202;28;20461;-77
2022/10/29 10:57:22;;;;;;;68.32;12.98;;;;;;;18.88;65.11;101749.47;4969413;28;20110;-79
2022/10/29 11:00:09;;;;;;;83.63;13.98;;;;;;;18.80;65.07;101726.69;4977514;28;20503;-76
2022/10/29 11:02:56;;;;;;;18.45;10.85;;;;;;;19.01;64.14;101743.66;5030546;28;20045;-79
2022/10/29 11:05:30;;;;;;;49.65;13.20;;;;;;;19.10;64.46;101750.06;5014048;28;20060;-82
2022/10/29 11:08:07;;;;;;;348.05;36.22;;;;;;;19.15;63.92;101745.84;5011112;28;20040;-85
2022/10/29 11:10:42;;;;;;;26.38;10.80;;;;;;;18.89;63.87;101706.69;5027770;28;20037;-82
2022/10/29 11:13:14;;;;;;;120.75;15.18;;;;;;;19.12;63.80;101718.88;5027047;28;20646;-77
2022/10/29 11:15:44;;;;;;;;;;;;;;;19.38;63.60;101728.06;5027739;28;20108;-78
2022/10/29 11:18:20;;;;;;;180.10;21.65;;;;;;;19.34;63.66;101726.63;5031003;28;19925;-81